createdAt,value
2019-04-24T00:01:09.836Z,6.97
2019-04-24T00:03:13.215Z,11.67
2019-04-24T00:05:39.728Z,7.50
2019-04-24T00:07:23.659Z,9.93
2019-04-24T00:09:29.322Z,9.87
2019-04-24T00:14:50.964Z,8.20
2019-04-24T00:15:52.989Z,12.83
2019-04-24T00:18:19.551Z,7.80
2019-04-24T00:20:22.493Z,10.60
2019-04-24T00:24:27.631Z,8.00
2019-04-24T00:26:19.774Z,8.20
2019-04-24T00:28:24.639Z,12.10
2019-04-24T00:30:45.489Z,8.33
2019-04-24T00:35:09.487Z,9.87
2019-04-24T00:37:00.307Z,8.43
2019-04-24T00:41:12.927Z,7.50
2019-04-24T00:43:31.884Z,10.60
2019-04-24T00:45:25.799Z,11.33
2019-04-24T00:47:26.763Z,9.27
2019-04-24T00:49:27.545Z,10.37
2019-04-24T00:51:44.439Z,15.43
2019-04-24T00:53:55.164Z,8.37
2019-04-24T00:55:49.160Z,9.70
2019-04-24T00:57:55.963Z,14.67
2019-04-24T00:59:48.932Z,10.60
2019-04-24T01:02:12.283Z,9.10
2019-04-24T01:04:46.592Z,9.03
2019-04-24T01:06:44.340Z,9.93
2019-04-24T01:08:44.885Z,9.27
2019-04-24T01:13:16.141Z,11.00
2019-04-24T01:17:33.541Z,12.80
2019-04-24T01:19:29.584Z,13.87
2019-04-24T01:23:34.888Z,11.93
2019-04-24T01:25:59.879Z,9.13
2019-04-24T01:30:13.369Z,11.60
2019-04-24T01:32:01.108Z,9.20
2019-04-24T01:34:16.574Z,9.83
2019-04-24T01:36:30.998Z,13.27
2019-04-24T01:38:29.206Z,8.90
2019-04-24T01:40:32.004Z,10.93
2019-04-24T01:42:32.829Z,14.37
2019-04-24T01:44:46.076Z,8.70
2019-04-24T01:49:00.938Z,9.40
2019-04-24T01:50:57.433Z,11.27
2019-04-24T01:53:01.764Z,12.70
2019-04-24T01:55:18.737Z,10.60
2019-04-24T01:57:24.592Z,11.47
2019-04-24T01:59:29.062Z,9.50
2019-04-24T02:01:31.993Z,9.70
2019-04-24T02:03:33.020Z,12.03
2019-04-24T02:05:33.973Z,10.20
2019-04-24T02:07:46.803Z,10.80
2019-04-24T02:10:38.850Z,10.00
2019-04-24T02:12:18.012Z,12.00
2019-04-24T02:14:24.269Z,9.57
2019-04-24T02:16:21.175Z,12.57
2019-04-24T02:18:33.075Z,9.40
2019-04-24T02:20:37.527Z,9.63
2019-04-24T02:24:56.033Z,12.63
2019-04-24T02:26:51.323Z,12.53
2019-04-24T02:29:07.058Z,9.63
2019-04-24T02:31:16.174Z,9.80
2019-04-24T02:33:47.614Z,12.73
2019-04-24T02:35:47.062Z,12.00
2019-04-24T02:38:01.482Z,14.40
2019-04-24T02:44:47.889Z,13.77
2019-04-24T02:48:38.199Z,15.10
2019-04-24T03:03:14.949Z,16.07
2019-04-24T03:05:15.334Z,9.63
2019-04-24T03:07:47.718Z,9.40
2019-04-24T03:09:33.600Z,8.60
2019-04-24T03:11:59.741Z,12.03
2019-04-24T03:14:00.041Z,8.43
2019-04-24T03:16:09.704Z,10.93
2019-04-24T03:18:27.058Z,12.93
2019-04-24T03:22:34.934Z,8.23
2019-04-24T03:29:07.336Z,10.93
2019-04-24T03:35:36.435Z,10.10
2019-04-24T03:39:48.458Z,12.83
2019-04-24T03:43:41.026Z,8.87
2019-04-24T03:45:44.667Z,10.73
2019-04-24T03:50:41.095Z,9.67
2019-04-24T03:54:29.338Z,10.90
2019-04-24T03:56:32.801Z,10.53
2019-04-24T04:00:54.566Z,9.43
2019-04-24T04:03:04.683Z,8.73
2019-04-24T04:05:14.142Z,14.37
2019-04-24T04:09:29.850Z,10.37
2019-04-24T04:18:27.238Z,12.70
2019-04-24T04:22:18.300Z,8.20
2019-04-24T04:24:29.703Z,8.80
2019-04-24T04:26:42.801Z,9.90
2019-04-24T04:28:59.870Z,10.27
2019-04-24T04:33:32.116Z,9.87
2019-04-24T04:35:21.912Z,11.20
2019-04-24T04:37:33.816Z,8.67
2019-04-24T04:39:43.325Z,10.43
2019-04-24T04:41:54.274Z,11.80
2019-04-24T04:46:50.573Z,10.80
2019-04-24T04:48:35.928Z,13.40
2019-04-24T04:52:59.648Z,10.20
2019-04-24T05:01:29.899Z,13.23
2019-04-24T05:03:39.149Z,9.53
2019-04-24T05:05:43.311Z,10.93
2019-04-24T05:07:38.297Z,10.27
2019-04-24T05:14:10.687Z,11.20
2019-04-24T05:18:03.731Z,15.17
2019-04-24T05:19:49.454Z,12.63
2019-04-24T05:28:43.841Z,11.03
2019-04-24T05:30:37.171Z,9.77
2019-04-24T05:35:22.248Z,12.27
2019-04-24T05:37:26.849Z,11.53
2019-04-24T05:41:33.110Z,11.40
2019-04-24T05:43:43.226Z,13.13
2019-04-24T05:45:59.909Z,11.87
2019-04-24T05:47:59.262Z,12.03
2019-04-24T05:50:39.858Z,14.07
2019-04-24T05:55:04.214Z,17.77
2019-04-24T05:57:09.507Z,17.07
2019-04-24T05:59:05.745Z,17.13
2019-04-24T06:01:49.155Z,16.00
2019-04-24T06:06:08.322Z,16.43
2019-04-24T06:10:32.608Z,17.03
2019-04-24T06:12:38.848Z,14.00
2019-04-24T06:14:45.333Z,22.23
2019-04-24T06:21:01.957Z,22.30
2019-04-24T06:23:34.886Z,23.83
2019-04-24T06:27:34.919Z,15.50
2019-04-24T06:32:10.012Z,11.27
2019-04-24T06:33:59.975Z,13.40
2019-04-24T06:35:58.009Z,11.90
2019-04-24T06:40:21.054Z,13.77
2019-04-24T06:42:33.874Z,18.03
2019-04-24T06:44:56.541Z,12.23
2019-04-24T06:46:58.943Z,14.77
2019-04-24T06:48:46.436Z,10.67
2019-04-24T06:57:19.472Z,12.57
2019-04-24T06:59:16.694Z,10.33
2019-04-24T07:01:30.102Z,13.33
2019-04-24T07:05:38.930Z,11.20
2019-04-24T07:12:35.158Z,9.90
2019-04-24T07:14:47.567Z,9.87
2019-04-24T07:17:17.025Z,11.67
2019-04-24T07:19:12.103Z,9.67
2019-04-24T07:21:39.564Z,11.80
2019-04-24T07:23:38.624Z,8.97
2019-04-24T07:28:03.339Z,10.30
2019-04-24T07:32:33.178Z,13.43
2019-04-24T07:34:45.356Z,13.33
2019-04-24T07:36:54.252Z,9.70
2019-04-24T07:38:40.310Z,14.70
2019-04-24T07:43:13.040Z,13.67
2019-04-24T07:45:11.486Z,9.97
2019-04-24T07:49:18.776Z,10.17
2019-04-24T07:53:51.805Z,10.93
2019-04-24T07:57:44.771Z,11.53
2019-04-24T08:06:45.446Z,8.80
2019-04-24T08:09:02.122Z,8.67
2019-04-24T08:10:47.788Z,10.30
2019-04-24T08:13:00.092Z,7.87
2019-04-24T08:17:23.907Z,7.40
2019-04-24T08:19:48.397Z,8.93
2019-04-24T08:21:32.390Z,7.37
2019-04-24T08:30:00.389Z,9.53
2019-04-24T08:32:06.253Z,10.07
2019-04-24T08:34:27.719Z,7.03
2019-04-24T08:36:07.922Z,8.30
2019-04-24T08:39:18.084Z,6.27
2019-04-24T08:41:01.165Z,4.87
2019-04-24T08:43:15.144Z,11.83
2019-04-24T08:47:36.040Z,8.00
2019-04-24T08:49:35.043Z,8.33
2019-04-24T08:55:57.736Z,5.60
2019-04-24T08:58:15.742Z,4.97
2019-04-24T09:00:09.921Z,4.37
2019-04-24T09:02:14.292Z,4.10
2019-04-24T09:06:30.383Z,3.20
2019-04-24T09:11:10.712Z,6.63
2019-04-24T09:13:17.635Z,3.67
2019-04-24T09:15:32.360Z,4.57
2019-04-24T09:17:17.974Z,6.23
2019-04-24T09:19:23.067Z,3.03
2019-04-24T09:21:38.495Z,6.97
2019-04-24T09:24:19.479Z,3.90
2019-04-24T09:26:37.513Z,3.73
2019-04-24T09:28:04.492Z,6.53
2019-04-24T09:34:20.472Z,3.73
2019-04-24T09:45:06.941Z,3.73
2019-04-24T09:49:02.463Z,4.57
2019-04-24T09:51:23.332Z,4.13
2019-04-24T09:55:37.625Z,2.40
2019-04-24T09:57:43.361Z,5.57
2019-04-24T09:59:42.242Z,4.03
2019-04-24T10:02:12.667Z,3.00
2019-04-24T10:04:28.213Z,2.67
2019-04-24T10:06:35.835Z,3.73
2019-04-24T10:10:37.511Z,4.20
2019-04-24T10:14:58.723Z,4.07
2019-04-24T10:19:11.805Z,33.63
2019-04-24T10:21:18.234Z,5.83
2019-04-24T10:23:34.803Z,2.90
2019-04-24T10:25:45.518Z,3.57
2019-04-24T10:27:52.329Z,3.00
2019-04-24T10:29:54.054Z,6.53
2019-04-24T10:32:12.635Z,6.53
2019-04-24T10:34:23.315Z,6.50
2019-04-24T10:39:20.817Z,5.60
2019-04-24T10:41:09.627Z,4.57
2019-04-24T10:45:28.736Z,3.73
2019-04-24T10:50:13.451Z,3.97
2019-04-24T10:52:05.389Z,5.07
2019-04-24T10:54:12.497Z,7.37
2019-04-24T10:56:26.562Z,3.30
2019-04-24T10:58:35.926Z,3.23
2019-04-24T11:00:42.530Z,5.90
2019-04-24T11:02:52.434Z,7.90
2019-04-24T11:07:16.475Z,4.07
2019-04-24T11:09:29.468Z,3.43
2019-04-24T11:11:59.501Z,5.00
2019-04-24T11:14:11.777Z,4.67
2019-04-24T11:16:42.003Z,4.03
2019-04-24T11:21:36.512Z,7.63
2019-04-24T11:25:38.733Z,6.33
2019-04-24T11:27:47.803Z,4.60
2019-04-24T11:29:53.744Z,4.20
2019-04-24T11:32:10.624Z,4.93
2019-04-24T11:34:36.056Z,6.93
2019-04-24T11:36:23.615Z,2.97
2019-04-24T11:40:46.620Z,2.97
2019-04-24T11:42:54.661Z,6.90
2019-04-24T11:45:11.099Z,3.07
2019-04-24T11:49:34.654Z,4.70
2019-04-24T11:53:31.714Z,4.63
2019-04-24T11:55:58.434Z,4.25
2019-04-24T11:58:21.104Z,4.20
2019-04-24T12:00:01.801Z,7.70
2019-04-24T12:11:14.633Z,5.25
2019-04-24T12:15:37.049Z,4.78
2019-04-24T12:17:42.996Z,4.45
2019-04-24T12:20:03.789Z,5.97
2019-04-24T12:24:07.377Z,3.98
2019-04-24T12:26:17.490Z,5.08
2019-04-24T12:28:29.550Z,3.27
2019-04-24T12:30:30.696Z,3.43
2019-04-24T12:32:54.996Z,4.23
2019-04-24T12:37:05.016Z,3.42
2019-04-24T12:39:06.783Z,2.80
2019-04-24T12:41:18.338Z,7.12
2019-04-24T12:43:30.250Z,2.02
2019-04-24T12:47:33.692Z,4.05
2019-04-24T12:49:50.296Z,4.45
2019-04-24T12:51:44.642Z,4.42
2019-04-24T12:53:56.618Z,2.77
2019-04-24T12:58:25.602Z,2.15
2019-04-24T13:00:47.064Z,3.65
2019-04-24T13:02:45.974Z,6.53
2019-04-24T13:04:57.177Z,2.55
2019-04-24T13:06:52.675Z,3.72
2019-04-24T13:13:17.917Z,2.27
2019-04-24T13:15:26.074Z,5.70
2019-04-24T13:17:51.087Z,5.67
2019-04-24T13:21:31.702Z,2.13
2019-04-24T13:23:45.898Z,2.98
2019-04-24T13:30:17.464Z,3.45
2019-04-24T13:32:38.088Z,3.05
2019-04-24T13:34:45.834Z,2.90
2019-04-24T13:37:03.927Z,3.33
2019-04-24T13:43:10.073Z,1.00
2019-04-24T13:45:07.971Z,2.52
2019-04-24T13:47:14.562Z,3.70
2019-04-24T13:49:13.995Z,4.92
2019-04-24T13:51:41.855Z,6.62
2019-04-24T13:53:37.005Z,8.15
2019-04-24T13:55:50.431Z,4.37
2019-04-24T13:57:47.569Z,5.12
2019-04-24T13:59:56.785Z,5.15
2019-04-24T14:04:11.935Z,3.33
2019-04-24T14:06:32.256Z,3.35
2019-04-24T14:10:36.463Z,2.50
2019-04-24T14:14:51.111Z,3.83
2019-04-24T14:16:30.359Z,3.10
2019-04-24T14:19:07.734Z,0.55
2019-04-24T14:20:54.515Z,3.77
2019-04-24T14:23:08.242Z,5.00
2019-04-24T14:27:10.084Z,4.40
2019-04-24T14:29:16.449Z,6.60
2019-04-24T14:31:25.137Z,2.87
2019-04-24T14:35:48.377Z,5.30
2019-04-24T14:37:44.441Z,0.88
2019-04-24T14:39:53.838Z,4.35
2019-04-24T14:41:59.490Z,2.42
2019-04-24T14:44:12.687Z,0.82
2019-04-24T14:48:15.333Z,5.40
2019-04-24T14:50:24.941Z,7.45
2019-04-24T14:52:31.791Z,0.60
2019-04-24T14:56:34.491Z,1.17
2019-04-24T14:58:48.126Z,2.42
2019-04-24T15:00:46.998Z,1.60
2019-04-24T15:05:05.851Z,6.35
2019-04-24T15:07:06.748Z,5.53
2019-04-24T15:09:16.237Z,1.92
2019-04-24T15:11:10.346Z,5.03
2019-04-24T15:13:34.894Z,4.40
2019-04-24T15:15:25.148Z,3.08
2019-04-24T15:17:43.783Z,0.90
2019-04-24T15:19:59.652Z,3.77
2019-04-24T15:22:01.978Z,2.52
2019-04-24T15:24:19.901Z,4.90
2019-04-24T15:26:02.715Z,4.87
2019-04-24T15:28:10.855Z,3.27
2019-04-24T15:30:09.541Z,0.55
2019-04-24T15:34:24.517Z,1.20
2019-04-24T15:36:20.506Z,5.35
2019-04-24T15:38:31.494Z,0.82
2019-04-24T15:42:51.385Z,5.72
2019-04-24T15:44:58.528Z,10.05
2019-04-24T15:47:11.312Z,2.58
2019-04-24T15:49:04.162Z,9.10
2019-04-24T15:51:23.624Z,5.03
2019-04-24T15:52:42.665Z,8.65
2019-04-24T15:54:46.510Z,5.78
2019-04-24T15:56:50.324Z,6.28
2019-04-24T15:59:07.131Z,2.87
2019-04-24T16:01:46.391Z,2.27
2019-04-24T16:03:43.802Z,3.97
2019-04-24T16:05:11.988Z,1.57
2019-04-24T16:07:19.729Z,2.20
2019-04-24T16:09:27.895Z,3.65
2019-04-24T16:11:31.540Z,2.03
2019-04-24T16:13:41.095Z,0.82
2019-04-24T16:16:12.990Z,7.80
2019-04-24T16:20:28.645Z,3.30
2019-04-24T16:22:24.560Z,1.87
2019-04-24T16:26:48.833Z,3.37
2019-04-24T16:28:42.464Z,1.62
2019-04-24T16:30:49.742Z,1.27
2019-04-24T16:33:04.569Z,2.23
2019-04-24T16:35:05.791Z,1.07
2019-04-24T16:37:09.476Z,2.52
2019-04-24T16:39:08.269Z,1.53
2019-04-24T16:41:22.810Z,2.07
2019-04-24T16:43:41.066Z,1.55
2019-04-24T16:46:13.751Z,3.80
2019-04-24T16:52:10.690Z,2.25
2019-04-24T16:54:10.829Z,6.45
2019-04-24T16:56:30.205Z,3.12
2019-04-24T16:58:28.476Z,5.03
2019-04-24T17:00:47.011Z,8.67
2019-04-24T17:02:52.141Z,4.97
2019-04-24T17:04:59.804Z,4.97
2019-04-24T17:07:01.015Z,5.63
2019-04-24T17:09:11.268Z,5.03
2019-04-24T17:13:20.385Z,5.83
2019-04-24T17:15:25.209Z,2.47
2019-04-24T17:19:47.617Z,5.92
2019-04-24T17:21:47.954Z,5.67
2019-04-24T17:23:50.636Z,6.50
2019-04-24T17:26:03.642Z,5.50
2019-04-24T17:27:57.569Z,2.83
2019-04-24T17:32:19.547Z,2.92
2019-04-24T17:34:39.513Z,1.20
2019-04-24T17:36:17.668Z,5.23
2019-04-24T17:37:58.107Z,3.47
2019-04-24T17:40:09.190Z,6.00
2019-04-24T17:42:28.866Z,8.40
2019-04-24T17:44:53.157Z,8.93
2019-04-24T17:49:17.827Z,9.18
2019-04-24T17:51:04.371Z,10.83
2019-04-24T17:53:16.669Z,35.50
2019-04-24T17:55:11.256Z,12.45
2019-04-24T17:57:16.847Z,8.83
2019-04-24T17:58:57.157Z,4.60
2019-04-24T18:01:08.367Z,3.87
2019-04-24T18:03:15.889Z,6.57
2019-04-24T18:05:17.687Z,3.67
2019-04-24T18:07:22.093Z,4.20
2019-04-24T18:09:25.775Z,25.33
2019-04-24T18:11:29.432Z,15.63
2019-04-24T18:13:33.122Z,22.23
2019-04-24T18:15:36.999Z,20.87
2019-04-24T18:17:42.189Z,14.83
2019-04-24T18:19:45.938Z,8.77
2019-04-24T18:21:49.621Z,13.07
2019-04-24T18:23:53.296Z,15.13
2019-04-24T18:26:05.047Z,7.67
2019-04-24T18:28:09.065Z,10.30
2019-04-24T18:30:14.590Z,12.40
2019-04-24T18:32:21.070Z,9.63
2019-04-24T18:34:24.906Z,11.43
2019-04-24T18:36:28.674Z,10.47
2019-04-24T18:38:32.867Z,7.13
2019-04-24T18:40:36.590Z,5.60
2019-04-24T18:42:40.265Z,4.87
2019-04-24T18:44:43.971Z,19.93
2019-04-24T18:46:47.633Z,3.33
2019-04-24T18:48:52.456Z,3.27
2019-04-24T18:50:56.194Z,0.83
2019-04-24T18:52:59.853Z,3.37
2019-04-24T18:55:04.045Z,2.87
2019-04-24T18:57:07.734Z,8.83
2019-04-24T18:59:11.401Z,7.30
2019-04-24T19:01:15.051Z,8.23
2019-04-24T19:03:18.806Z,0.83
2019-04-24T19:05:23.500Z,5.50
2019-04-24T19:07:27.315Z,8.57
2019-04-24T19:09:31.685Z,2.07
2019-04-24T19:11:35.454Z,5.87
2019-04-24T19:13:39.166Z,3.73
2019-04-24T19:15:42.900Z,2.03
2019-04-24T19:17:54.824Z,2.50
2019-04-24T19:19:52.897Z,1.63
2019-04-24T19:21:56.715Z,1.60
2019-04-24T19:24:00.377Z,1.60
2019-04-24T19:26:04.482Z,3.73
2019-04-24T19:28:09.069Z,5.03
2019-04-24T19:30:13.527Z,0.80
2019-04-24T19:32:17.290Z,2.77
2019-04-24T19:34:21.727Z,2.90
2019-04-24T19:36:26.486Z,1.50
2019-04-24T19:38:30.168Z,2.40
2019-04-24T19:40:39.212Z,1.23
2019-04-24T19:42:39.348Z,3.43
2019-04-24T19:44:42.996Z,3.37
2019-04-24T19:46:46.704Z,2.40
2019-04-24T19:48:51.954Z,2.77
2019-04-24T19:50:55.955Z,4.90
2019-04-24T19:53:01.352Z,2.73
2019-04-24T19:55:07.154Z,2.20
2019-04-24T19:57:17.648Z,3.70
2019-04-24T19:59:16.788Z,2.23
2019-04-24T20:01:22.011Z,1.03
2019-04-24T20:03:25.729Z,2.37
2019-04-24T20:05:29.800Z,2.40
2019-04-24T20:07:33.627Z,4.03
2019-04-24T20:09:50.835Z,2.93
2019-04-24T20:11:56.716Z,1.53
2019-04-24T20:14:02.014Z,1.43
2019-04-24T20:16:07.389Z,2.93
2019-04-24T20:18:11.786Z,3.50
2019-04-24T20:20:17.103Z,1.33
2019-04-24T20:22:23.193Z,3.13
2019-04-24T20:24:29.006Z,3.90
2019-04-24T20:26:32.678Z,3.50
2019-04-24T20:28:36.400Z,2.27
2019-04-24T20:30:41.637Z,1.90
2019-04-24T20:32:45.398Z,2.73
2019-04-24T20:34:49.087Z,2.47
2019-04-24T20:36:52.862Z,3.50
2019-04-24T20:38:56.535Z,3.30
2019-04-24T20:41:00.212Z,1.80
2019-04-24T20:43:04.327Z,4.67
2019-04-24T20:45:08.185Z,1.77
2019-04-24T20:47:12.164Z,5.33
2019-04-24T20:49:16.539Z,1.37
2019-04-24T20:51:20.742Z,5.10
2019-04-24T20:53:25.804Z,2.77
2019-04-24T20:55:29.475Z,4.17
2019-04-24T20:57:33.339Z,1.40
2019-04-24T20:59:36.995Z,2.13
2019-04-24T21:01:41.756Z,2.67
2019-04-24T21:03:45.537Z,4.70
2019-04-24T21:05:53.361Z,1.10
2019-04-24T21:08:04.135Z,1.60
2019-04-24T21:10:09.762Z,3.50
2019-04-24T21:12:15.708Z,5.83
2019-04-24T21:14:20.209Z,4.40
2019-04-24T21:16:24.936Z,1.83
2019-04-24T21:18:28.696Z,2.43
2019-04-24T21:20:33.444Z,1.17
2019-04-24T21:22:39.317Z,5.80
2019-04-24T21:24:42.997Z,2.93
2019-04-24T21:26:46.851Z,1.37
2019-04-24T21:28:51.693Z,1.17
2019-04-24T21:30:55.615Z,3.13
2019-04-24T21:32:59.372Z,1.93
2019-04-24T21:35:03.179Z,2.63
2019-04-24T21:37:06.862Z,3.03
2019-04-24T21:39:12.126Z,1.37
2019-04-24T21:41:15.950Z,1.70
2019-04-24T21:43:26.561Z,0.90
2019-04-24T21:45:25.566Z,1.80
2019-04-24T21:47:29.485Z,3.00
2019-04-24T21:49:34.041Z,2.43
2019-04-24T21:51:38.996Z,2.97
2019-04-24T21:53:42.676Z,2.37
2019-04-24T21:55:46.358Z,1.53
2019-04-24T21:58:03.183Z,6.43
2019-04-24T22:00:11.475Z,0.90
2019-04-24T22:02:22.974Z,1.43
2019-04-24T22:04:31.719Z,1.20
2019-04-24T22:06:42.338Z,2.73
2019-04-24T22:08:46.007Z,2.00
2019-04-24T22:10:51.113Z,1.63
2019-04-24T22:12:55.043Z,2.93
2019-04-24T22:14:58.992Z,6.70
2019-04-24T22:17:02.894Z,4.37
2019-04-24T22:19:06.920Z,2.27
2019-04-24T22:21:14.953Z,1.97
2019-04-24T22:23:20.186Z,2.60
2019-04-24T22:25:27.942Z,1.70
2019-04-24T22:27:42.110Z,2.67
2019-04-24T22:29:45.830Z,3.40
2019-04-24T22:31:59.868Z,5.07
2019-04-24T22:34:11.260Z,2.00
2019-04-24T22:36:15.235Z,1.07
2019-04-24T22:38:21.260Z,1.00
2019-04-24T22:40:29.441Z,4.83
2019-04-24T22:42:33.801Z,3.47
2019-04-24T22:44:38.008Z,2.57
2019-04-24T22:46:41.749Z,1.87
2019-04-24T22:48:45.403Z,5.50
2019-04-24T22:50:49.114Z,0.90
2019-04-24T22:52:52.783Z,1.00
2019-04-24T22:54:56.621Z,1.23
2019-04-24T22:57:00.464Z,1.67
2019-04-24T22:59:04.132Z,0.87
2019-04-24T23:01:08.769Z,4.30
2019-04-24T23:03:12.608Z,1.10
2019-04-24T23:05:16.467Z,4.00
2019-04-24T23:07:20.258Z,3.83
2019-04-24T23:09:25.596Z,1.50
2019-04-24T23:11:29.482Z,2.13
2019-04-24T23:13:35.390Z,2.50
2019-04-24T23:15:39.182Z,3.37
2019-04-24T23:17:43.144Z,1.53
2019-04-24T23:19:46.812Z,1.80
2019-04-24T23:21:54.910Z,6.23
2019-04-24T23:24:00.145Z,2.87
2019-04-24T23:26:23.250Z,4.73
2019-04-24T23:28:46.710Z,4.80
2019-04-24T23:30:53.080Z,4.63
2019-04-24T23:33:06.999Z,1.43
2019-04-24T23:35:10.661Z,4.93
2019-04-24T23:37:14.346Z,4.10
2019-04-24T23:39:18.994Z,5.87
2019-04-24T23:41:22.666Z,1.93
2019-04-24T23:43:26.486Z,3.90
2019-04-24T23:45:30.198Z,3.03
2019-04-24T23:47:34.730Z,4.60
2019-04-24T23:49:39.288Z,3.03
2019-04-24T23:51:43.533Z,3.87
2019-04-24T23:53:47.291Z,3.97
2019-04-24T23:55:50.976Z,2.03
2019-04-24T23:57:54.654Z,3.27
2019-04-24T23:59:58.427Z,2.20
